This is the latest recevied weather packets stored in our database for station/object KQ4DLB-13. If no packets are shown the sender has not sent any weather packets the latest 1 day(s).
| Time | Temp. | Humidity | Pressure | Rain* | Wind** | Luminosity | Snow |
|---|---|---|---|---|---|---|---|
| 1778026502 | 17.22° C | 89% | 982.9 hPa | 0 mm | 1.79 m/s, 183° | - | - |
| 1778026202 | 17.22° C | 88% | 983 hPa | 0 mm | 1.79 m/s, 191° | - | - |
| 1778025902 | 17.22° C | 87% | 983 hPa | 0 mm | 1.79 m/s, 190° | - | - |
| 1778025603 | 17.22° C | 86% | 983.1 hPa | 0 mm | 1.34 m/s, 249° | - | - |
| 1778025302 | 17.78° C | 85% | 983.2 hPa | 0 mm | 1.34 m/s, 223° | - | - |
| 1778025002 | 17.22° C | 85% | 983.2 hPa | 0 mm | 2.24 m/s, 194° | - | - |
| 1778024703 | 17.78° C | 86% | 983.3 hPa | 0 mm | 1.79 m/s, 197° | - | - |
| 1778024402 | 17.78° C | 85% | 983.4 hPa | 0 mm | 2.24 m/s, 189° | - | - |
| 1778024102 | 17.78° C | 83% | 983.3 hPa | 0 mm | 2.68 m/s, 173° | - | - |
| 1778023802 | 18.33° C | 80% | 983.2 hPa | 0 mm | 1.79 m/s, 173° | - | - |
| 1778023502 | 18.33° C | 80% | 983.1 hPa | 0 mm | 2.24 m/s, 187° | - | - |
| 1778023201 | 18.89° C | 77% | 982.9 hPa | 0 mm | 2.68 m/s, 163° | - | - |
| 1778022902 | 18.89° C | 76% | 982.7 hPa | 0 mm | 2.24 m/s, 168° | - | - |
| 1778022602 | 18.89° C | 73% | 982.8 hPa | 0 mm | 1.79 m/s, 328° | - | - |
| 1778022302 | 18.89° C | 73% | 983 hPa | 0 mm | 1.34 m/s, 324° | - | - |
| 1778022002 | 18.89° C | 73% | 983 hPa | 0 mm | 1.34 m/s, 190° | 105 W/m² | - |
| 1778021702 | 18.89° C | 74% | 983 hPa | 0 mm | 1.79 m/s, 0° | - | - |
| 1778021402 | 18.89° C | 74% | 983 hPa | 0 mm | 1.79 m/s, 3° | 121 W/m² | - |
| 1778021102 | 18.89° C | 76% | 983 hPa | 0 mm | 1.34 m/s, 296° | - | - |
| 1778020801 | 18.33° C | 76% | 983 hPa | 0 mm | 1.79 m/s, 326° | - | - |
| 1778020502 | 18.33° C | 78% | 983.1 hPa | 0 mm | 1.79 m/s, 20° | 106 W/m² | - |
| 1778020202 | 18.33° C | 80% | 983.2 hPa | 0 mm | 1.34 m/s, 328° | 134 W/m² | - |
| 1778019902 | 17.78° C | 81% | 983.3 hPa | 0 mm | 1.34 m/s, 309° | 128 W/m² | - |
| 1778019602 | 17.78° C | 83% | 983.3 hPa | 0 mm | 1.79 m/s, 262° | - | - |
| 1778019302 | 17.78° C | 84% | 983.3 hPa | 0 mm | 1.79 m/s, 177° | - | - |
* Rain latest hour (hover to see other rain measurements)
** Current wind speed in m/s (hover to see current wind gust speed)